Lone Creek
                              Weekly Meteorological Summary
                             Station: Collegeville

              T e m p e r a t u r e   Avg   Avg   Max   Min     W  I  N  D     Time    Solar  Daily   Daily    Seas     Min
              Max  Time   Min  Time  Temp DewPt    RH    RH   Avg   Max  Gust  Time      Cal    ETo  Precip  Precip     Bat
   Date         F Occur     F Occur     F     F     %     %   mph   mph Dirof Occur     /cm2     In      In   7/1->   Volts
---------------------------------------------------------------------------------------------------------------------------
  09/07/18   98.2  1612  53.4   652  73.9  52.2    93    15   3.9  12.7   NNW  1543      611   0.23    0.00    0.00    12.2
  09/08/18   95.6  1548  55.4   658  74.2  48.1    93    13   4.4  18.0    NW  1534      613   0.26    0.00    0.00    12.3
  09/09/18   94.1  1621  49.7   632  71.9  47.9    92    13   3.9  15.8     N  1505      605   0.23    0.00    0.00    12.2
  09/10/18   92.3  1620  50.7   643  71.6  49.0    84    18   4.0  16.6   NNW  1519      602   0.23    0.00    0.00    12.3
  09/11/18   92.0  1623  53.0   619  71.7  44.1    84    12   3.9  17.9     W  1829      602   0.24    0.00    0.00    12.3
  09/12/18   82.0  1555  53.8   516  64.3  47.5    71    29   9.8  22.1     W  1800       14   0.19    0.00    0.00    12.3
  09/13/18   80.7  1619  55.5   645  65.7  47.0    86    23   5.2  20.5     W  1908      514   0.19    0.00    0.00    12.3

                                                                                                                               
 Avg/Total   90.7        53.1        70.5  48.0    86    18   5.0  17.6                  509   1.57    0.00

===========================================================================================================================


                                  Lone Creek
                    Collegeville - Hourly Observations

                       Dew        2min  2min 10min H o u r l y   Max SolRad       Daily Daily Daily
                Temp    Pt    RH  Wind  Wind  Gust  Wind  Wind  Wind  Watts  Prec  Prec  MinT  MaxT
  Date    Time     F     F     %   Dir   mph   mph   Dir   mph  Gust    /m2    In    In     F     F
---------------------------------------------------------------------------------------------------
  09/14/18 1500  82.0  44.7    27   NNW   7.3  11.0   NNW   5.1  12.6    821  0.00  0.00  55.0  82.1
  09/14/18 1400  80.2  46.5    31    NW   9.8  13.6    NW   5.7  13.7    889  0.00  0.00  55.0  80.6
  09/14/18 1300  77.4  47.3    35   NNW   5.9  12.8    NW   6.2  14.8    892  0.00  0.00  55.0  78.1
  09/14/18 1200  74.0  49.5    42    NW   4.5  10.0    NW   6.5  12.3    860  0.00  0.00  55.0  74.5
  09/14/18 1100  69.1  51.2    53   WNW   6.6  11.7    NW   6.3  12.2    636  0.00  0.00  55.0  70.0
  09/14/18 1000  65.8  49.8    56   NNW   6.4  10.1   NNW   6.3  10.6    441  0.00  0.00  55.0  66.8
  09/14/18 0900  63.5  51.5    65    NW   6.0   8.9   NNW   6.2   9.5    334  0.00  0.00  55.0  63.7
  09/14/18 0800  59.1  50.8    74   NNW   5.7   8.1    NW   3.0   8.1    121  0.00  0.00  55.0  59.4
  09/14/18 0700  55.8  50.4    82    NW   1.9   2.9    NW   2.3   3.5      4  0.00  0.00  55.0  59.4
  09/14/18 0600  57.6  50.2    76   NNW   2.6   3.4   NNW   2.2   3.9      0  0.00  0.00  55.0  59.4
  09/14/18 0500  57.3  49.8    76    NW   2.4   3.5    NW   1.7   3.5      0  0.00  0.00  55.0  59.4
  09/14/18 0400  58.0  48.5    71     N   1.7   2.9   NNW   2.0   5.2      0  0.00  0.00  55.0  59.4
  09/14/18 0300  57.0  49.9    77     N   3.1   4.5   NNE   3.2   5.9      0  0.00  0.00  55.0  59.4
  09/14/18 0200  55.4  49.7    81     N   3.9   5.8   NNE   3.1   5.9      0  0.00  0.00  55.0  59.4
  09/14/18 0100  57.1  49.7    76   NNE   2.2   5.2     N   3.2   5.6      0  0.00  0.00  56.5  59.4
  09/14/18 0000  59.1  50.0    72     N   2.9   7.9    NW   5.0  10.1      0  0.00  0.00  55.5  80.7
  09/13/18 2300  60.0  50.0    69   WNW   7.2  11.5   WNW   8.2  13.8      0  0.00  0.00  55.5  80.7
  09/13/18 2200  61.5  48.8    63   WNW   8.2  11.8   WNW   7.4  13.4      0  0.00  0.00  55.5  80.7
  09/13/18 2100  63.3  48.4    58   WNW   6.3  10.2   WNW   8.6  16.0      0  0.00  0.00  55.5  80.7
  09/13/18 2000  66.6  47.0    49     W  10.1  15.7     W  11.2  20.5      6  0.00  0.00  55.5  80.7
  09/13/18 1900  71.8  42.1    34     W  10.9  16.3     W  11.7  19.0    118  0.00  0.00  55.5  80.7
  09/13/18 1800  75.3  40.1    28     W   9.0  15.0     W   9.8  15.9    196  0.00  0.00  55.5  80.7
  09/13/18 1700  77.3  40.8    27   WNW   8.8  13.8   WSW   7.2  13.8    494  0.00  0.00  55.5  80.7
  09/13/18 1600  78.5  43.0    28   WSW   5.3   9.4     W   6.0  13.7    543  0.00  0.00  55.5  79.4
  09/13/18 1500  78.4  44.3    30     W   1.7   9.4   WNW   5.3  12.4    679  0.00  0.00  55.5  79.4
  09/13/18 1400  77.2  42.8    29     W   4.8  10.1   WSW   5.5  14.3    906  0.00  0.00  55.5  78.2
  09/13/18 1300  75.9  45.7    34   WSW   5.9   8.2   WSW   4.4  10.6    903  0.00  0.00  55.5  76.4
  09/13/18 1200  72.2  47.5    42   WNW   5.0  11.1     W   6.0  12.6    830  0.00  0.00  55.5  73.1
  09/13/18 1100  70.3  48.9    47   WSW   2.4  11.4   WSW   4.9  11.4    707  0.00  0.00  55.5  70.6
  09/13/18 1000  66.0  49.3    55   WSW   6.1   9.0     W   3.6  10.0    444  0.00  0.00  55.5  66.0
  09/13/18 0900  59.6  50.1    71     S   0.8   1.5   SSW   1.2   2.9    106  0.00  0.00  55.5  60.7
  09/13/18 0800  57.0  51.0    80     S   1.7   2.0     S   1.0   2.6     35  0.00  0.00  55.5  60.7
  09/13/18 0700  55.8  50.4    82   ESE   1.9   2.7     S   1.5   3.0      2  0.00  0.00  55.5  60.7
  09/13/18 0600  57.4  48.4    72    NW   2.4   2.7     W   2.1   9.4      0  0.00  0.00  56.4  60.7
  09/13/18 0500  59.9  47.4    63   WNW   4.4   6.6     W   3.0   7.2      0  0.00  0.00  56.4  60.1
  09/13/18 0400  57.7  49.4    74   ESE   1.3   2.3   SSE   1.4   4.2      0  0.00  0.00  56.4  59.8
  09/13/18 0300  58.4  48.1    69     W   1.8   3.5    NW   3.1   5.4      0  0.00  0.00  57.6  59.8
  09/13/18 0200  58.2  48.0    69   NNW   2.7   3.4   NNW   2.5   4.9      0  0.00  0.00  57.9  59.8
  09/13/18 0100  58.7  48.8    70    NW   3.0   4.1    NW   3.8  10.6      0  0.00  0.00  58.2  59.8
  09/13/18 0000  59.5  49.8    70     W   6.2   9.8   WNW   6.5  10.6      0  0.00  0.00  53.8  82.0
  09/12/18 2300  60.0  49.7    69   WNW   6.8  11.5   WNW   8.6  17.2      0  0.00  0.00  53.8  82.0
  09/12/18 2200  61.2  48.9    64   WNW   9.3  14.5   WNW  10.0  15.8      0  0.00  0.00  53.8  82.0
  09/12/18 2100  62.6  48.8    60     W   8.6  13.2   WNW  10.9  18.9      0  0.00  0.00  53.8  82.0
  09/12/18 2000  64.4  47.1    53   WNW  12.2  17.8   WNW  10.2  17.8      4  0.00  0.00  53.8  82.0
  09/12/18 1900  67.0  47.3    49   WNW   8.2  14.7     W  10.8  22.1     50  0.00  0.00  53.8  82.0
  09/12/18 1800  72.6  42.6    34     W  13.4  20.8     W  13.0  20.8    189  0.00  0.00  53.8  82.0
  09/12/18 1600  80.7  42.5    26     W   9.5  17.2   WNW   8.4  21.0    736  0.00  0.00  53.8  82.0
  09/12/18 1500  80.1  45.5    30   WSW   6.0  19.9   WNW   7.9  19.9    830  0.00  0.00  53.8  81.3
  09/12/18 1400  78.9  44.2    29   NNW   6.3  12.5    NW   7.3  14.8    787  0.00  0.00  53.8  79.6
  09/12/18 1300  76.3  42.5    30   WNW   8.6  13.0   WNW   8.2  16.7    804  0.00  0.00  53.8  77.5
  09/12/18 1200  75.0  45.2    35    NW   7.0  12.6   WNW   7.6  14.3    827  0.00  0.00  53.8  75.5
  09/12/18 1100  71.8  45.2    38   WNW   7.5  10.6   WNW   7.6  14.9    747  0.00  0.00  53.8  72.6
  09/12/18 1000  67.5  47.8    49   WNW   8.4  12.1     W   7.1  12.7    440  0.00  0.00  53.8  67.9
  09/12/18 0900  64.0  48.3    57     W   5.5   7.9   WNW   2.9   9.1    349  0.00  0.00  53.8  64.1
  09/12/18 0800  59.1  46.9    64    NE   0.6   1.3    NE   1.6   3.9    126  0.00  0.00  53.8  63.4
  09/12/18 0700  55.5  45.7    70   NNE   3.0   4.8    NW   5.0  10.0      3  0.00  0.00  53.8  63.4
  09/12/18 0600  58.0  45.3    63     W   6.1  10.6   WNW   4.2  10.6      0  0.00  0.00  53.8  63.4
  09/12/18 0500  57.0  43.7    61     N   2.4   3.3   WNW   4.3   8.9      0  0.00  0.00  55.6  63.4
  09/12/18 0400  57.4  44.3    61   WNW   5.6   7.0   WNW   3.9   7.8      0  0.00  0.00  55.6  63.4
  09/12/18 0300  59.0  44.6    59     N   1.8   2.6     N   2.1   4.3      0  0.00  0.00  58.8  63.4
  09/12/18 0200  60.4  45.0    57     N   2.4   3.7    NW   4.5  14.7      0  0.00  0.00  60.1  63.4
  09/12/18 0100  61.8  44.4    53   WNW   7.5  11.3    NW   3.8  11.3      0  0.00  0.00  60.1  62.5
  09/12/18 0000  62.5  43.6    50    NW   3.5   5.5   WNW   4.0   9.0      0  0.00  0.00  53.0  92.0
  09/11/18 2300  65.4  41.2    41   WNW   5.2   8.0   WNW   5.3   9.1      0  0.00  0.00  53.0  92.0
  09/11/18 2200  68.7  39.0    34   WNW   7.2  12.1     W   9.8  17.4      0  0.00  0.00  53.0  92.0
  09/11/18 2100  70.4  36.1    28   WNW   9.3  15.6     W   7.7  15.6      0  0.00  0.00  53.0  92.0
  09/11/18 2000  74.0  30.6    20     W   8.6  12.3     W   6.5  13.9      6  0.00  0.00  53.0  92.0
  09/11/18 1900  79.3  33.8    19     W   8.2  15.0     W  10.8  17.9    128  0.00  0.00  53.0  92.0
  09/11/18 1800  86.2  37.2    18     W   9.5  14.5     W   8.5  16.0    338  0.00  0.00  53.0  92.0
  09/11/18 1700  90.5  42.1    19     W   8.2  12.7     W   5.3  12.7    542  0.00  0.00  53.0  92.0
  09/11/18 1600  89.8  40.0    18    SW   5.6  11.4     W   5.7  14.4    723  0.00  0.00  53.0  91.7
  09/11/18 1500  90.1  40.1    17   WNW   4.3   9.0   WNW   4.9  11.8    858  0.00  0.00  53.0  90.3
  09/11/18 1400  88.5  45.9    23   WNW   6.0  10.1   WNW   3.6  10.5    923  0.00  0.00  53.0  89.1
  09/11/18 1300  84.9  45.5    25   NNW   4.1  12.3    NW   4.5  12.3    919  0.00  0.00  53.0  85.3
  09/11/18 1200  82.0  42.8    25   WNW   6.4  13.4    NW   3.6  13.4    847  0.00  0.00  53.0  82.9
  09/11/18 1100  79.8  48.0    33    NW   5.3   8.8   WNW   2.7   8.8    715  0.00  0.00  53.0  79.8
  09/11/18 1000  75.8  48.4    38     E   1.6   3.5     N   1.8   3.9    538  0.00  0.00  53.0  75.9
  09/11/18 0900  70.0  50.6    50    NE   1.2   2.7   NNW   2.0   4.9    330  0.00  0.00  53.0  70.2
  09/11/18 0800  64.1  49.0    58    NW   3.2   3.8    NW   1.4   3.8    122  0.00  0.00  53.0  64.2
  09/11/18 0700  54.6  48.7    80   WSW   0.1   2.5   NNE   1.1   3.6      3  0.00  0.00  53.0  62.6
  09/11/18 0600  54.1  48.8    82    SE   1.5   1.9    NE   1.1   4.1      0  0.00  0.00  53.9  62.6
  09/11/18 0500  57.9  46.6    66   NNE   3.3   4.3     E   0.8   4.3      0  0.00  0.00  54.4  62.6
  09/11/18 0400  56.2  50.6    82    SE   1.7   2.0   ENE   0.6   2.0      0  0.00  0.00  55.8  62.6
  09/11/18 0300  58.2  49.6    73   NNE   0.4   1.8   ENE   1.1   2.7      0  0.00  0.00  56.8  62.6
  09/11/18 0200  58.7  52.3    79   SSE   1.0   1.3   SSE   1.0   3.0      0  0.00  0.00  58.2  62.6
  09/11/18 0100  61.2  51.2    69     W   0.2   1.8    SW   0.9   3.0      0  0.00  0.00  61.1  62.6
  09/11/18 0000  61.8  51.4    69     E   1.0   1.6   ENE   2.5   6.2      0  0.00  0.00  50.7  92.3
  09/10/18 2300  70.2  47.6    44    NW   4.8   7.2   WNW   5.3   8.9      0  0.00  0.00  50.7  92.3
  09/10/18 2200  71.0  50.0    47   WNW   3.8   5.8   WNW   4.2   6.6      0  0.00  0.00  50.7  92.3
  09/10/18 2100  75.1  49.9    41   WNW   5.4   8.7     W   4.3   8.7      0  0.00  0.00  50.7  92.3
  09/10/18 2000  75.5  51.0    42   WNW   3.5   4.8     W   2.8   4.8      6  0.00  0.00  50.7  92.3
  09/10/18 1900  84.4  55.7    38     W   2.0   5.8   NNW   5.2  10.4    132  0.00  0.00  50.7  92.3
  09/10/18 1800  90.1  47.2    23   NNW   6.0  10.6   NNW   7.9  14.8    336  0.00  0.00  50.7  92.3
  09/10/18 1700  91.9  47.9    22   NNW   8.4  12.3   NNW   7.8  14.0    544  0.00  0.00  50.7  92.3
  09/10/18 1600  90.6  47.0    22   NNW   8.7  13.0    NW   8.1  16.6    721  0.00  0.00  50.7  92.3
  09/10/18 1500  88.9  50.6    27    NW   6.3  12.1   WNW   6.1  12.1    852  0.00  0.00  50.7  89.8
  09/10/18 1400  86.0  51.0    30   NNW   7.4  13.3   WNW   7.1  13.7    923  0.00  0.00  50.7  86.3
  09/10/18 1300  82.7  51.4    34   WNW   8.2  13.6   WNW   7.4  14.6    923  0.00  0.00  50.7  83.0
  09/10/18 1200  80.4  51.0    36   WNW   7.0  11.0    NW   5.6  11.5    850  0.00  0.00  50.7  80.9
  09/10/18 1100  76.9  48.2    36     N   2.5   8.3    NW   4.4   9.8    719  0.00  0.00  50.7  77.1
  09/10/18 1000  72.3  49.0    44   NNW   4.5   7.6     N   3.5   7.6    542  0.00  0.00  50.7  72.6
  09/10/18 0900  66.6  47.8    51   ENE   1.7   4.2   NNW   1.9   5.0    328  0.00  0.00  50.7  66.9
  09/10/18 0800  61.1  47.5    61   NNW   2.2   3.3   NNW   1.2   3.3    120  0.00  0.00  50.7  63.6
  09/10/18 0700  51.9  44.7    76    NW   0.6   2.0    NW   1.5   4.1      4  0.00  0.00  50.7  63.6
  09/10/18 0600  53.3  47.3    80   WNW   1.0   2.1     N   1.9   4.5      0  0.00  0.00  52.7  63.6
  09/10/18 0500  54.7  47.8    77    NE   1.8   2.6     N   1.5   4.2      0  0.00  0.00  54.1  63.6
  09/10/18 0400  54.5  47.7    78     N   1.1   2.1   NNW   0.9   2.2      0  0.00  0.00  54.3  63.6
  09/10/18 0300  57.6  48.6    72   NNW   0.1   3.1   NNE   1.3   4.4      0  0.00  0.00  57.4  63.6
  09/10/18 0200  59.0  49.6    71    NW   1.7   2.2   NNW   1.9   3.8      0  0.00  0.00  57.8  63.6
  09/10/18 0100  61.0  47.4    61     N   2.1   2.4    NW   1.2   3.3      0  0.00  0.00  60.4  63.6
  09/10/18 0000  62.6  49.3    62     W   0.0   0.4    NE   1.4   4.8      0  0.00  0.00  49.7  94.1
  09/09/18 2300  68.1  47.0    47   NNE   3.5   5.9    NW   3.2   5.9      0  0.00  0.00  49.7  94.1
  09/09/18 2200  70.9  46.7    42   WNW   3.7   6.6   WNW   5.2   8.7      0  0.00  0.00  49.7  94.1
  09/09/18 2100  73.9  49.2    42     W   5.3   8.0     W   5.2   9.8      0  0.00  0.00  49.7  94.1
  09/09/18 2000  74.3  50.5    43   WSW   5.1   7.3    NW   3.6   7.5      7  0.00  0.00  49.7  94.1
  09/09/18 1900  87.1  50.5    28   NNW   4.7   7.8   NNW   6.1   9.9    144  0.00  0.00  49.7  94.1
  09/09/18 1800  92.3  45.9    20    NW   7.5  10.7   NNW   6.0  11.2    349  0.00  0.00  49.7  94.1
  09/09/18 1700  93.0  44.2    19    NW   4.5  10.7   NNW   5.6  12.7    556  0.00  0.00  49.7  94.1
  09/09/18 1600  93.3  41.8    17   NNW   7.4  11.5   NNW   5.9  15.8    733  0.00  0.00  49.7  94.0
  09/09/18 1500  90.9  46.5    22     N   6.7  13.3   NNW   7.0  13.3    855  0.00  0.00  49.7  92.2
  09/09/18 1400  89.0  48.0    24    NW   7.6  12.5    NW   7.0  13.3    933  0.00  0.00  49.7  90.5
  09/09/18 1300  84.6  52.0    33    NW   7.6  10.4   WNW   5.9  12.9    897  0.00  0.00  49.7  85.0
  09/09/18 1200  81.5  52.3    36    NW   4.2   8.7   WNW   5.1  11.0    860  0.00  0.00  49.7  81.6
  09/09/18 1100  78.6  51.9    40   WNW   5.5  10.0    NW   5.3  11.0    721  0.00  0.00  49.7  78.6
  09/09/18 1000  73.9  50.4    44   NNW   6.3   8.8   NNW   6.3  11.2    536  0.00  0.00  49.7  74.5
  09/09/18 0900  68.7  50.4    52     N   3.9   6.7     N   3.8   6.8    322  0.00  0.00  49.7  68.7
  09/09/18 0800  58.6  48.5    69   NNW   2.4   3.5   NNW   1.1   3.5    116  0.00  0.00  49.7  64.5
  09/09/18 0700  51.3  48.9    91     N   0.0   0.5   WNW   0.6   2.1      5  0.00  0.00  49.7  64.5
  09/09/18 0600  51.5  44.5    77     N   1.2   1.9   WNW   0.5   1.9      0  0.00  0.00  50.4  64.5
  09/09/18 0500  51.4  48.3    89     S   1.4   2.2    SE   1.3   2.5      0  0.00  0.00  51.1  64.5
  09/09/18 0400  54.7  46.7    74   SSE   0.7   1.6     N   1.0   2.6      0  0.00  0.00  53.4  64.5
  09/09/18 0300  55.9  47.5    73   WSW   0.1   1.3   NNW   1.0   4.9      0  0.00  0.00  55.6  64.5
  09/09/18 0200  60.1  44.2    56     N   1.5   3.8    NW   2.4   5.7      0  0.00  0.00  58.0  64.5
  09/09/18 0100  59.8  47.4    63     W   0.7   2.3   WNW   2.3   4.7      0  0.00  0.00  59.6  64.5
  09/09/18 0000  64.1  46.4    52     W   1.7   4.4     N   3.1   6.9      0  0.00  0.00  55.4  95.6
  09/08/18 2300  68.4  41.6    38   NNW   3.7   8.0    NW   4.6   9.8      0  0.00  0.00  55.4  95.6
  09/08/18 2200  70.5  42.9    37    NW   4.0   5.5    NW   3.5   6.2      0  0.00  0.00  55.4  95.6
  09/08/18 2100  71.6  45.4    39   WNW   5.1   7.2   WNW   5.7   9.4      0  0.00  0.00  55.4  95.6
  09/08/18 2000  77.0  43.9    31   WNW   3.3   5.8   WNW   3.6   7.8      9  0.00  0.00  55.4  95.6
  09/08/18 1900  85.9  46.7    26   WNW   4.8  11.7    NW   7.8  13.5    149  0.00  0.00  55.4  95.6
  09/08/18 1800  91.7  42.2    18    NW   9.7  14.1    NW  10.9  17.8    368  0.00  0.00  55.4  95.6
  09/08/18 1700  94.2  42.3    17    NW   9.8  17.0    NW  10.0  17.0    572  0.00  0.00  55.4  95.6
  09/08/18 1600  94.1  42.0    17   WNW  10.5  16.9    NW   8.6  18.0    743  0.00  0.00  55.4  95.6
  09/08/18 1500  94.1  46.1    19    NW   7.3  15.3   NNW   7.5  15.3    866  0.00  0.00  55.4  94.9
  09/08/18 1400  90.8  46.9    22   WNW   7.9  14.4   NNW   7.4  14.5    929  0.00  0.00  55.4  92.8
  09/08/18 1300  87.9  49.1    26   WNW   7.7  12.1   WNW   7.7  13.3    922  0.00  0.00  55.4  88.4
  09/08/18 1200  84.5  47.9    28   WNW   8.5  12.8   WNW   7.2  12.8    850  0.00  0.00  55.4  85.0
  09/08/18 1100  81.2  50.5    34   NNW   4.3   7.5   WNW   3.6   9.2    718  0.00  0.00  55.4  81.3
  09/08/18 1000  76.3  48.9    38   NNW   1.9   6.2   NNW   3.1   8.0    537  0.00  0.00  55.4  76.5
  09/08/18 0900  71.3  49.8    47     N   2.5   4.9   NNE   3.0   6.9    329  0.00  0.00  55.4  71.4
  09/08/18 0800  64.8  50.0    59   ENE   1.4   3.2   ESE   1.1   3.2    125  0.00  0.00  55.4  67.6
  09/08/18 0700  55.5  50.5    83   ESE   1.5   2.5   ESE   1.5   4.6      3  0.00  0.00  55.4  67.6
  09/08/18 0600  57.4  51.4    81   NNE   0.2   1.2     E   1.6   3.8      0  0.00  0.00  56.0  67.6
  09/08/18 0500  56.1  52.7    88   ESE   2.6   3.0    SE   1.4   3.0      0  0.00  0.00  56.1  67.6
  09/08/18 0400  60.8  52.1    73   ENE   1.7   2.7    SE   1.0   2.7      0  0.00  0.00  57.8  67.6
  09/08/18 0300  58.5  53.8    84     E   0.1   0.7   ESE   0.8   2.3      0  0.00  0.00  58.2  67.6
  09/08/18 0200  60.9  49.3    66     N   0.0   1.5    NW   0.6   2.3      0  0.00  0.00  60.9  67.6
  09/08/18 0100  61.9  54.7    77    NW   1.0   1.2    NW   0.6   2.2      0  0.00  0.00  61.7  67.6
  09/08/18 0000  67.3  50.1    54     N   1.7   3.7   NNE   1.3   3.7      0  0.00  0.00  53.4  98.2
  09/07/18 2300  68.3  48.2    49   NNW   1.2   3.9   NNW   1.9   4.4      0  0.00  0.00  53.4  98.2
  09/07/18 2200  72.9  49.5    44     N   2.6   3.7    NW   3.5   5.2      0  0.00  0.00  53.4  98.2
  09/07/18 2100  74.2  56.9    55   WNW   3.7   5.7   WNW   4.8  10.4      0  0.00  0.00  53.4  98.2
  09/07/18 2000  79.8  55.0    42   WNW   7.5  11.0   WNW   6.3  11.6      9  0.00  0.00  53.4  98.2
  09/07/18 1900  86.9  48.3    26   WNW   6.1   9.4    NW   7.8  12.4    148  0.00  0.00  53.4  98.2
  09/07/18 1800  95.5  48.5    20   NNW   8.5  11.8   NNW   7.1  11.8    353  0.00  0.00  53.4  98.2
  09/07/18 1700  97.3  48.2    19   NNW   6.5  10.6   NNW   6.5  12.2    558  0.00  0.00  53.4  98.2
  09/07/18 1600  96.2  51.9    23   NNW   4.0  10.0   NNW   5.4  12.7    735  0.00  0.00  53.4  97.0
  09/07/18 1500  94.5  53.8    25    NW   5.3   8.4    NW   4.7  10.5    871  0.00  0.00  53.4  94.8
  09/07/18 1400  92.9  51.0    24   NNW   4.3   8.2    NW   4.7   9.9    935  0.00  0.00  53.4  92.9